Versailles, MO (65084)

2:54 PM CDT on September 01, 2014 (GMT -0500)
Beginning of Indian Creek | Change Station
CLOSE
Current Station
Personal Weather Station
Location: Barnett, MO
Elevation: 679 ft
Nearby Weather Stations
Active Advisory: Flash Flood Watch Active Notice: Public Information Statement

Elev 679 ft 38.30 °N, 92.73 °W | Updated 9 minutes ago

Partly Cloudy
Partly Cloudy
83.7 °F
Feels Like 88 °F
N
2.2
Wind Variable Wind from West

Today
High -- | Low -- °F
--% Chance of Precip.
Yesterday
High -- | Low -- °F
Precip. -- in
6:40 AM 7:41 PM
Waxing Crescent, 43% visible
Pressure 29.90 in
Visibility 10.0 miles
Clouds Scattered Clouds 2700 ft
Mostly Cloudy 6500 ft
Heat Index 88 °F
Dew Point 69 °F
Humidity 62%
Rainfall 0.62 in
Snow Depth Not available.
UV 5 out of 12
Pollen 7.60 out of 12
Air Quality Not available.
Flu Activity Not available.
METAR KDMO 011853Z AUTO 26013KT 10SM SCT027 BKN065 27/19 A2992 RMK AO2 SLP125 T02670189

More Conditions Fewer Conditions

Pressure 29.90 in
Visibility 10.0 miles
Clouds Scattered Clouds 2700 ft
Mostly Cloudy 6500 ft
Heat Index 88 °F
Dew Point 69 °F
Humidity 62%
Rainfall 0.62 in
Snow Depth Not available.
UV 5 out of 12
Pollen 7.60 out of 12
Air Quality Not available.
Flu Activity Not available.
METAR KDMO 011853Z AUTO 26013KT 10SM SCT027 BKN065 27/19 A2992 RMK AO2 SLP125 T02670189

More Conditions Fewer Conditions

10-Day Weather Forecast

Almanac

Astronomy

Sep. 01, 2014 Rise Set
Actual Time 6:40 AM CDT 7:41 PM CDT
Civil Twilight 6:13 AM CDT 8:08 PM CDT
Nautical Twilight 5:41 AM CDT 8:40 PM CDT
Astronomical Twilight 5:07 AM CDT 9:13 PM CDT
Moon 1:21 PM CDT 11:48 PM CDT
Length of Visible Light 13h 54m
Length of Day
13h 00m
Tomorrow will be 2m 22s shorter.
Waxing Crescent, 43% of the Moon is Illuminated
Today
Waxing Crescent
Sep 2
First Quarter
Sep 8
Full
Sep 15
Last Quarter
Sep 24
New

Today's Extremes

State Highs State Lows

Community

WunderPhotos

Upload Photos

1,749,387 photos uploaded!

WunderBlogs® & News

Nearby

Snow Depth

Station Depth Elevation
No new snow has been reported.

Earthquake Activity

City Distance Mag. Time & Date
No recent earthquake activity has been reported nearby.
Minimum magnitude displayed is 2.5.

Coastal Water Temperatures

Place Temperature
No Stations Reporting

Nearby Weather Stations